createdAt,value
2019-04-14T00:01:59.281Z,100894.78
2019-04-14T00:04:48.730Z,100897.55
2019-04-14T00:08:06.886Z,100895.64
2019-04-14T00:10:46.450Z,100904.92
2019-04-14T00:13:23.910Z,100900.31
2019-04-14T00:16:01.642Z,100907.63
2019-04-14T00:18:38.974Z,100912.52
2019-04-14T00:21:15.687Z,100910.63
2019-04-14T00:23:54.382Z,100920.72
2019-04-14T00:26:33.621Z,100933.71
2019-04-14T00:29:10.906Z,100934.41
2019-04-14T00:31:50.715Z,100941.03
2019-04-14T00:34:44.190Z,100946.64
2019-04-14T00:37:31.495Z,100959.72
2019-04-14T00:40:31.579Z,100966.25
2019-04-14T00:43:26.798Z,100963.69
2019-04-14T00:46:10.017Z,100973.13
2019-04-14T00:48:49.646Z,100983.85
2019-04-14T00:51:27.147Z,100986.11
2019-04-14T00:54:04.388Z,100993.19
2019-04-14T00:56:41.632Z,100988.55
2019-04-14T00:59:20.080Z,101001.95
2019-04-14T01:01:59.090Z,100998.71
2019-04-14T01:04:38.224Z,101009.17
2019-04-14T01:07:15.626Z,101013.94
2019-04-14T01:09:55.370Z,101017.54
2019-04-14T01:12:32.585Z,101026.16
2019-04-14T01:15:11.507Z,101016.83
2019-04-14T01:17:48.834Z,101024.56
2019-04-14T01:20:27.501Z,101030.63
2019-04-14T01:23:04.762Z,101041.20
2019-04-14T01:25:41.730Z,101046.57
2019-04-14T01:28:20.110Z,101044.38
2019-04-14T01:30:59.027Z,101044.56
2019-04-14T01:33:36.466Z,101045.39
2019-04-14T01:36:14.768Z,101047.33
2019-04-14T01:38:51.966Z,101049.56
2019-04-14T01:41:30.508Z,101049.98
2019-04-14T01:44:07.760Z,101056.68
2019-04-14T01:46:45.596Z,101051.32
2019-04-14T01:49:22.845Z,101052.61
2019-04-14T01:52:19.071Z,101053.53
2019-04-14T01:55:13.959Z,101058.01
2019-04-14T01:58:03.410Z,101066.76
2019-04-14T02:01:06.164Z,101065.92
2019-04-14T02:03:45.459Z,101072.81
2019-04-14T02:06:24.446Z,101068.91
2019-04-14T02:09:01.304Z,101075.78
2019-04-14T02:11:40.682Z,101078.34
2019-04-14T02:14:21.186Z,101078.67
2019-04-14T02:17:02.497Z,101082.81
2019-04-14T02:19:39.297Z,101089.48
2019-04-14T02:22:18.131Z,101091.06
2019-04-14T02:24:57.088Z,101091.23
2019-04-14T02:27:34.357Z,101091.95
2019-04-14T02:30:17.392Z,101094.30
2019-04-14T02:38:40.925Z,101098.53
2019-04-14T02:41:27.026Z,101109.34
2019-04-14T02:43:57.975Z,101109.46
2019-04-14T02:46:38.308Z,101114.65
2019-04-14T02:49:12.804Z,101107.39
2019-04-14T02:51:53.358Z,101109.36
2019-04-14T02:54:36.061Z,101112.55
2019-04-14T02:57:15.093Z,101114.24
2019-04-14T02:59:56.251Z,101118.94
2019-04-14T03:02:30.323Z,101124.89
2019-04-14T03:05:01.950Z,101119.12
2019-04-14T03:07:46.248Z,101117.70
2019-04-14T03:10:27.637Z,101125.48
2019-04-14T03:13:05.520Z,101121.34
2019-04-14T03:15:47.877Z,101121.71
2019-04-14T03:18:41.051Z,101135.58
2019-04-14T03:21:34.596Z,101138.11
2019-04-14T03:24:31.765Z,101133.05
2019-04-14T03:27:22.870Z,101128.83
2019-04-14T03:30:46.003Z,101126.52
2019-04-14T03:33:18.347Z,101132.58
2019-04-14T03:38:20.559Z,101131.86
2019-04-14T03:40:58.649Z,101129.52
2019-04-14T03:43:30.292Z,101129.77
2019-04-14T03:49:07.434Z,101131.77
2019-04-14T03:51:37.073Z,101132.22
2019-04-14T03:54:03.126Z,101133.83
2019-04-14T03:57:04.038Z,101121.96
2019-04-14T03:59:43.742Z,101116.45
2019-04-14T04:02:22.534Z,101121.14
2019-04-14T04:04:59.931Z,101119.64
2019-04-14T04:07:37.312Z,101109.22
2019-04-14T04:10:19.132Z,101107.99
2019-04-14T04:12:57.606Z,101113.09
2019-04-14T04:15:36.486Z,101103.82
2019-04-14T04:18:24.182Z,101099.31
2019-04-14T04:21:23.282Z,101083.73
2019-04-14T04:24:13.373Z,101093.08
2019-04-14T04:27:11.813Z,101084.18
2019-04-14T04:30:10.306Z,101091.28
2019-04-14T04:33:15.574Z,101079.79
2019-04-14T04:35:58.406Z,101075.41
2019-04-14T04:38:51.401Z,101072.61
2019-04-14T04:41:29.620Z,101049.34
2019-04-14T04:44:07.204Z,101062.45
2019-04-14T04:46:45.969Z,101038.39
2019-04-14T04:49:27.421Z,101045.87
2019-04-14T04:52:03.979Z,101042.39
2019-04-14T04:54:41.323Z,101066.98
2019-04-14T04:57:18.386Z,101038.33
2019-04-14T04:59:56.157Z,101058.24
2019-04-14T05:02:33.262Z,101045.62
2019-04-14T05:05:28.216Z,101047.83
2019-04-14T05:08:05.202Z,101030.31
2019-04-14T05:10:48.190Z,101022.12
2019-04-14T05:13:29.683Z,101007.66
2019-04-14T05:16:08.503Z,101007.66
2019-04-14T05:18:46.348Z,101022.38
2019-04-14T05:21:23.970Z,101000.76
2019-04-14T05:24:00.881Z,100990.45
2019-04-14T05:26:42.317Z,101019.16
2019-04-14T05:29:20.999Z,101019.16
2019-04-14T05:31:58.340Z,101004.64
2019-04-14T05:34:36.699Z,101004.64
2019-04-14T05:37:14.499Z,100999.26
2019-04-14T05:39:52.722Z,101003.98
2019-04-14T05:42:31.903Z,100991.05
2019-04-14T05:45:09.049Z,100994.60
2019-04-14T05:47:46.276Z,100991.54
2019-04-14T05:50:24.911Z,100988.82
2019-04-14T05:53:04.361Z,100980.72
2019-04-14T05:55:43.755Z,100974.61
2019-04-14T05:58:21.361Z,100959.93
2019-04-14T06:00:58.752Z,100959.64
2019-04-14T06:03:36.498Z,100951.55
2019-04-14T06:06:13.250Z,100946.80
2019-04-14T06:08:49.553Z,100937.95
2019-04-14T06:11:26.691Z,100932.48
2019-04-14T06:14:04.470Z,100919.06
2019-04-14T06:16:42.321Z,100918.67
2019-04-14T06:19:22.008Z,100904.55
2019-04-14T06:21:59.531Z,100896.05
2019-04-14T06:24:38.059Z,100892.94
2019-04-14T06:27:14.956Z,100874.13
2019-04-14T06:29:54.358Z,100861.55
2019-04-14T06:32:41.699Z,100854.02
2019-04-14T06:35:39.829Z,100842.72
2019-04-14T06:38:23.592Z,100822.52
2019-04-14T06:41:04.310Z,100808.02
2019-04-14T06:43:48.680Z,100796.41
2019-04-14T06:46:20.614Z,100796.71
2019-04-14T06:48:57.437Z,100794.07
2019-04-14T06:51:34.539Z,100784.75
2019-04-14T06:54:12.082Z,100786.22
2019-04-14T06:56:50.185Z,100796.22
2019-04-14T06:59:26.943Z,100802.57
2019-04-14T07:02:04.310Z,100806.58
2019-04-14T07:04:41.255Z,100799.33
2019-04-14T07:07:18.488Z,100788.31
2019-04-14T07:09:55.341Z,100792.47
2019-04-14T07:12:32.545Z,100786.59
2019-04-14T07:15:10.269Z,100776.59
2019-04-14T07:17:47.677Z,100770.05
2019-04-14T07:20:24.721Z,100760.56
2019-04-14T07:23:01.940Z,100751.67
2019-04-14T07:25:39.451Z,100747.58
2019-04-14T07:28:18.823Z,100736.24
2019-04-14T07:31:13.986Z,100729.38
2019-04-14T07:34:08.457Z,100725.64
2019-04-14T07:37:14.096Z,100718.30
2019-04-14T07:39:58.109Z,100717.09
2019-04-14T07:42:53.460Z,100725.45
2019-04-14T07:45:47.458Z,100724.84
2019-04-14T07:48:30.481Z,100722.31
2019-04-14T07:51:25.114Z,100704.43
2019-04-14T07:54:23.827Z,100711.27
2019-04-14T07:57:25.731Z,100710.47
2019-04-14T08:00:12.278Z,100690.81
2019-04-14T08:03:09.203Z,100685.09
2019-04-14T08:05:46.373Z,100673.83
2019-04-14T08:08:23.573Z,100666.52
2019-04-14T08:11:01.562Z,100677.83
2019-04-14T08:13:39.589Z,100680.45
2019-04-14T08:16:17.307Z,100676.67
2019-04-14T08:18:54.384Z,100675.98
2019-04-14T08:21:31.692Z,100678.07
2019-04-14T08:24:08.995Z,100659.14
2019-04-14T08:26:46.122Z,100655.52
2019-04-14T08:29:24.252Z,100653.23
2019-04-14T08:32:03.278Z,100658.09
2019-04-14T08:34:40.349Z,100637.51
2019-04-14T08:37:17.615Z,100642.33
2019-04-14T08:39:55.100Z,100641.23
2019-04-14T08:42:50.157Z,100637.41
2019-04-14T08:45:44.621Z,100628.72
2019-04-14T08:48:46.617Z,100621.87
2019-04-14T08:51:35.628Z,100629.14
2019-04-14T08:54:49.269Z,100624.80
2019-04-14T08:57:32.094Z,100620.39
2019-04-14T09:00:24.654Z,100622.44
2019-04-14T09:03:20.047Z,100617.05
2019-04-14T09:06:07.022Z,100625.91
2019-04-14T09:09:12.151Z,100621.92
2019-04-14T09:12:14.582Z,100626.34
2019-04-14T09:14:40.592Z,100619.02
2019-04-14T09:17:19.076Z,100616.12
2019-04-14T09:19:57.915Z,100607.86
2019-04-14T09:22:34.904Z,100601.34
2019-04-14T09:25:12.192Z,100589.64
2019-04-14T09:27:49.689Z,100598.86
2019-04-14T09:30:26.942Z,100582.06
2019-04-14T09:33:05.402Z,100568.63
2019-04-14T09:35:42.370Z,100560.09
2019-04-14T09:38:20.074Z,100561.20
2019-04-14T09:40:58.153Z,100562.66
2019-04-14T09:43:35.272Z,100563.59
2019-04-14T09:46:12.657Z,100571.25
2019-04-14T09:48:53.064Z,100565.96
2019-04-14T09:51:29.775Z,100566.17
2019-04-14T09:54:06.932Z,100568.98
2019-04-14T09:56:46.529Z,100578.27
2019-04-14T09:59:24.232Z,100570.36
2019-04-14T10:02:02.863Z,100566.91
2019-04-14T10:04:40.422Z,100577.81
2019-04-14T10:07:18.228Z,100573.09
2019-04-14T10:09:56.207Z,100585.72
2019-04-14T10:12:35.373Z,100582.98
2019-04-14T10:15:12.491Z,100583.64
2019-04-14T10:17:49.682Z,100576.11
2019-04-14T10:20:29.027Z,100574.72
2019-04-14T10:23:06.077Z,100579.06
2019-04-14T10:25:42.581Z,100575.92
2019-04-14T10:28:19.483Z,100584.84
2019-04-14T10:30:57.938Z,100583.22
2019-04-14T10:33:35.143Z,100601.45
2019-04-14T10:36:13.420Z,100591.46
2019-04-14T10:38:50.856Z,100598.39
2019-04-14T10:41:27.980Z,100607.67
2019-04-14T10:44:05.285Z,100614.23
2019-04-14T10:46:42.456Z,100616.99
2019-04-14T11:11:45.268Z,100642.89
2019-04-14T11:14:23.696Z,100640.00
2019-04-14T11:17:00.635Z,100636.98
2019-04-14T11:19:37.953Z,100645.38
2019-04-14T11:22:15.623Z,100652.46
2019-04-14T11:24:52.536Z,100657.78
2019-04-14T11:27:30.141Z,100660.58
2019-04-14T11:30:09.935Z,100660.27
2019-04-14T11:33:15.073Z,100664.19
2019-04-14T11:36:10.112Z,100666.75
2019-04-14T11:38:53.504Z,100654.50
2019-04-14T11:45:57.611Z,100662.51
2019-04-14T11:48:38.528Z,100681.22
2019-04-14T11:51:21.047Z,100680.61
2019-04-14T12:50:19.286Z,100737.10
2019-04-14T12:52:57.517Z,100749.16
2019-04-14T12:55:34.466Z,100752.80
2019-04-14T12:58:12.285Z,100767.19
2019-04-14T13:00:53.542Z,100767.74
2019-04-14T13:03:31.502Z,100760.29
2019-04-14T13:06:08.974Z,100768.38
2019-04-14T13:08:46.428Z,100767.44
2019-04-14T13:11:24.572Z,100767.09
2019-04-14T13:14:01.821Z,100765.16
2019-04-14T13:16:39.317Z,100772.02
2019-04-14T13:19:16.806Z,100774.36
2019-04-14T13:21:54.721Z,100775.81
2019-04-14T13:24:32.698Z,100781.45
2019-04-14T13:27:09.914Z,100787.14
2019-04-14T13:29:47.307Z,100783.98
2019-04-14T13:32:35.416Z,100778.67
2019-04-14T13:35:03.943Z,100780.50
2019-04-14T13:37:40.658Z,100782.31
2019-04-14T13:40:17.576Z,100786.66
2019-04-14T13:42:55.775Z,100786.80
2019-04-14T13:45:32.696Z,100784.35
2019-04-14T13:48:10.096Z,100792.07
2019-04-14T13:50:47.081Z,100793.15
2019-04-14T13:53:24.861Z,100790.52
2019-04-14T13:56:03.073Z,100799.02
2019-04-14T13:58:40.943Z,100805.00
2019-04-14T14:01:17.996Z,100807.88
2019-04-14T14:03:56.152Z,100819.37
2019-04-14T14:06:33.095Z,100821.68
2019-04-14T14:09:13.940Z,100828.05
2019-04-14T14:12:25.135Z,100831.84
2019-04-14T14:15:21.356Z,100839.03
2019-04-14T14:18:26.758Z,100848.91
2019-04-14T14:21:22.073Z,100848.97
2019-04-14T14:24:11.624Z,100855.19
2019-04-14T14:26:52.190Z,100850.37
2019-04-14T14:29:29.198Z,100859.05
2019-04-14T14:32:07.850Z,100859.95
2019-04-14T14:34:44.261Z,100880.09
2019-04-14T14:37:21.966Z,100885.94
2019-04-14T14:39:58.999Z,100888.01
2019-04-14T14:42:36.568Z,100892.39
2019-04-14T14:45:24.071Z,100899.94
2019-04-14T14:48:22.183Z,100896.94
2019-04-14T14:51:07.651Z,100898.87
2019-04-14T14:53:45.391Z,100902.48
2019-04-14T14:56:22.314Z,100899.39
2019-04-14T14:59:00.578Z,100900.31
2019-04-14T15:01:37.833Z,100904.75
2019-04-14T15:04:15.550Z,100912.86
2019-04-14T15:06:52.444Z,100913.06
2019-04-14T15:09:30.954Z,100918.67
2019-04-14T15:12:08.198Z,100917.95
2019-04-14T15:14:45.372Z,100912.41
2019-04-14T15:17:22.312Z,100909.55
2019-04-14T15:20:00.238Z,100915.81
2019-04-14T15:22:37.764Z,100918.14
2019-04-14T15:25:15.160Z,100919.79
2019-04-14T15:27:54.751Z,100928.81
2019-04-14T15:30:34.323Z,100922.16
2019-04-14T15:33:11.687Z,100922.96
2019-04-14T15:35:48.818Z,100928.22
2019-04-14T15:38:25.936Z,100924.30
2019-04-14T15:41:03.436Z,100921.11
2019-04-14T15:43:40.677Z,100923.66
2019-04-14T15:46:18.210Z,100932.41
2019-04-14T15:48:55.504Z,100944.58
2019-04-14T15:51:33.808Z,100949.52
2019-04-14T15:54:10.857Z,100948.11
2019-04-14T15:57:05.573Z,100953.06
2019-04-14T15:59:59.950Z,100954.89
2019-04-14T16:02:46.942Z,100956.22
2019-04-14T16:05:47.630Z,100956.50
2019-04-14T16:08:38.102Z,100953.42
2019-04-14T16:11:30.378Z,100950.66
2019-04-14T16:14:31.836Z,100953.42
2019-04-14T16:17:25.385Z,100956.52
2019-04-14T16:20:07.670Z,100953.59
2019-04-14T16:22:44.911Z,100947.42
2019-04-14T16:25:23.666Z,100953.47
2019-04-14T16:28:13.388Z,100959.10
2019-04-14T16:31:06.904Z,100958.93
2019-04-14T16:34:21.270Z,100961.71
2019-04-14T16:36:58.701Z,100956.13
2019-04-14T16:39:35.683Z,100945.09
2019-04-14T16:42:13.713Z,100941.00
2019-04-14T16:44:50.852Z,100935.95
2019-04-14T16:47:28.701Z,100935.78
2019-04-14T16:50:05.896Z,100928.87
2019-04-14T16:53:03.409Z,100925.41
2019-04-14T16:55:47.766Z,100923.78
2019-04-14T16:58:38.511Z,100923.00
2019-04-14T17:01:23.336Z,100923.59
2019-04-14T17:04:00.975Z,100920.89
2019-04-14T17:06:39.319Z,100914.91
2019-04-14T17:09:17.941Z,100920.22
2019-04-14T17:11:55.477Z,100919.39
2019-04-14T17:14:38.378Z,100918.32
2019-04-14T17:17:26.959Z,100908.28
2019-04-14T17:20:23.494Z,100912.87
2019-04-14T17:23:13.847Z,100914.52
2019-04-14T17:26:05.121Z,100910.21
2019-04-14T17:29:13.152Z,100904.77
2019-04-14T17:32:12.266Z,100899.84
2019-04-14T17:34:55.875Z,100905.98
2019-04-14T17:38:03.671Z,100906.81
2019-04-14T17:40:50.148Z,100896.30
2019-04-14T17:43:42.102Z,100898.82
2019-04-14T17:46:49.647Z,100895.18
2019-04-14T17:49:42.956Z,100896.30
2019-04-14T17:52:37.529Z,100897.73
2019-04-14T17:55:24.723Z,100895.19
2019-04-14T17:58:15.940Z,100893.55
2019-04-14T18:01:24.001Z,100901.87
2019-04-14T18:04:20.891Z,100902.31
2019-04-14T18:07:07.779Z,100902.69
2019-04-14T18:10:09.478Z,100893.56
2019-04-14T18:13:05.083Z,100889.28
2019-04-14T18:15:53.560Z,100885.50
2019-04-14T18:18:42.442Z,100882.17
2019-04-14T18:21:19.857Z,100873.23
2019-04-14T18:23:57.316Z,100863.31
2019-04-14T18:26:34.752Z,100864.17
2019-04-14T18:29:50.740Z,100850.61
2019-04-14T18:32:42.183Z,100839.77
2019-04-14T18:35:31.149Z,100835.13
2019-04-14T18:38:36.731Z,100826.75
2019-04-14T18:41:33.874Z,100826.13
2019-04-14T18:44:25.956Z,100823.19
2019-04-14T18:47:11.174Z,100822.96
2019-04-14T18:50:22.008Z,100819.05
2019-04-14T18:53:06.146Z,100819.83
2019-04-14T18:56:02.399Z,100806.27
2019-04-14T18:58:57.977Z,100799.67
2019-04-14T19:01:39.477Z,100803.08
2019-04-14T19:04:17.392Z,100799.70
2019-04-14T19:06:54.831Z,100789.80
2019-04-14T19:09:35.441Z,100790.23
2019-04-14T19:12:45.962Z,100782.81
2019-04-14T19:15:38.814Z,100784.83
2019-04-14T19:18:40.158Z,100780.69
2019-04-14T19:21:20.236Z,100774.02
2019-04-14T19:23:57.598Z,100773.56
2019-04-14T19:26:36.824Z,100772.56
2019-04-14T19:29:14.393Z,100755.72
2019-04-14T19:31:51.903Z,100764.88
2019-04-14T19:34:29.284Z,100762.49
2019-04-14T19:37:07.237Z,100764.53
2019-04-14T19:39:45.776Z,100769.55
2019-04-14T19:42:23.852Z,100759.58
2019-04-14T19:45:01.186Z,100765.07
2019-04-14T19:47:39.625Z,100758.14
2019-04-14T19:50:16.547Z,100755.81
2019-04-14T19:52:53.983Z,100752.56
2019-04-14T19:55:31.302Z,100746.35
2019-04-14T19:58:09.923Z,100744.28
2019-04-14T20:00:48.192Z,100738.70
2019-04-14T20:03:25.952Z,100733.54
2019-04-14T20:06:03.008Z,100731.42
2019-04-14T20:08:40.591Z,100736.22
2019-04-14T20:11:18.409Z,100729.73
2019-04-14T20:13:56.099Z,100730.61
2019-04-14T20:16:42.710Z,100732.08
2019-04-14T20:19:39.542Z,100742.05
2019-04-14T20:22:22.407Z,100743.78
2019-04-14T20:25:33.532Z,100740.76
2019-04-14T20:28:16.901Z,100739.59
2019-04-14T20:31:09.695Z,100742.77
2019-04-14T20:33:47.686Z,100736.64
2019-04-14T20:36:24.985Z,100748.49
2019-04-14T20:39:03.060Z,100750.56
2019-04-14T20:41:43.074Z,100741.23
2019-04-14T20:44:20.095Z,100737.02
2019-04-14T20:46:58.531Z,100740.64
2019-04-14T20:49:36.169Z,100739.56
2019-04-14T20:52:13.799Z,100735.19
2019-04-14T20:54:50.879Z,100744.49
2019-04-14T20:57:27.986Z,100735.78
2019-04-14T21:00:05.731Z,100733.92
2019-04-14T21:03:09.447Z,100727.99
2019-04-14T21:06:10.974Z,100735.63
2019-04-14T21:09:04.170Z,100739.22
2019-04-14T21:12:01.343Z,100743.52
2019-04-14T21:15:07.111Z,100759.40
2019-04-14T21:18:03.031Z,100757.42
2019-04-14T21:20:49.214Z,100748.21
2019-04-14T21:23:43.492Z,100753.34
2019-04-14T21:26:34.022Z,100760.14
2019-04-14T21:29:16.731Z,100762.20
2019-04-14T21:31:56.821Z,100768.94
2019-04-14T21:34:56.916Z,100766.61
2019-04-14T21:37:51.734Z,100777.36
2019-04-14T21:40:48.224Z,100770.22
2019-04-14T21:43:25.467Z,100778.98
2019-04-14T21:46:03.731Z,100781.33
2019-04-14T21:48:41.454Z,100785.23
2019-04-14T21:51:18.755Z,100780.92
2019-04-14T21:53:55.959Z,100790.51
2019-04-14T21:56:35.318Z,100779.66
2019-04-14T21:59:19.259Z,100784.00
2019-04-14T22:02:34.162Z,100778.95
2019-04-14T22:05:23.009Z,100777.11
2019-04-14T22:08:10.516Z,100765.45
2019-04-14T22:11:00.398Z,100764.21
2019-04-14T22:13:38.420Z,100760.87
2019-04-14T22:16:16.208Z,100763.64
2019-04-14T22:18:53.526Z,100763.16
2019-04-14T22:21:31.736Z,100757.63
2019-04-14T22:24:08.851Z,100756.95
2019-04-14T22:26:46.584Z,100773.27
2019-04-14T22:29:23.799Z,100775.06
2019-04-14T22:32:01.165Z,100779.14
2019-04-14T22:34:38.785Z,100786.48
2019-04-14T22:37:15.997Z,100788.90
2019-04-14T22:39:52.696Z,100788.82
2019-04-14T22:42:29.902Z,100789.31
2019-04-14T22:45:08.081Z,100799.14
2019-04-14T22:47:46.423Z,100796.52
2019-04-14T22:50:24.133Z,100795.99
2019-04-14T22:53:02.435Z,100796.52
2019-04-14T22:55:39.616Z,100801.78
2019-04-14T22:58:16.074Z,100810.95
2019-04-14T23:00:57.213Z,100807.23
2019-04-14T23:03:55.104Z,100812.56
2019-04-14T23:06:51.639Z,100811.27
2019-04-14T23:09:33.072Z,100817.91
2019-04-14T23:12:37.834Z,100822.56
2019-04-14T23:15:26.670Z,100824.25
2019-04-14T23:18:12.502Z,100820.02
2019-04-14T23:21:26.185Z,100821.86
2019-04-14T23:24:23.802Z,100824.13
2019-04-14T23:27:01.605Z,100820.74
2019-04-14T23:29:39.436Z,100826.05
2019-04-14T23:32:17.738Z,100823.37
2019-04-14T23:34:54.581Z,100821.95
2019-04-14T23:37:32.370Z,100828.11
2019-04-14T23:40:10.128Z,100834.84
2019-04-14T23:42:47.268Z,100834.41
2019-04-14T23:45:25.399Z,100833.68
2019-04-14T23:48:03.587Z,100841.53
2019-04-14T23:50:41.977Z,100838.88
2019-04-14T23:53:19.116Z,100847.17
2019-04-14T23:55:56.232Z,100853.84
2019-04-14T23:58:33.787Z,100861.40
